Time;durP1;ratioP1;P1;durP2;ratioP2;P2;SDS_P1;SDS_P2;PMS_P1;PMS_P2;Temp;Humidity;BMP_temperature;BMP_pressure;BME280_temperature;BME280_humidity;BME280_pressure;Samples;Min_cycle;Max_cycle;Signal;HPM_P1;HPM_P2
2022/07/16 00:03:05;;;;;;;16.30;11.10;;;;;;;11.89;100.00;99256.38;105230;1271;61373;-72
2022/07/16 00:05:31;;;;;;;14.80;9.90;;;;;;;11.87;100.00;99257.20;105169;1270;61268;-71
2022/07/16 00:07:57;;;;;;;13.00;10.10;;;;;;;11.85;100.00;99258.02;105042;1270;61374;-74
2022/07/16 00:10:24;;;;;;;14.30;10.10;;;;;;;11.82;100.00;99255.01;105216;1271;61291;-73
2022/07/16 00:12:50;;;;;;;12.10;8.50;;;;;;;11.81;100.00;99257.41;105229;1268;61361;-72
2022/07/16 00:15:16;;;;;;;11.60;8.90;;;;;;;11.79;100.00;99257.89;105223;1271;61468;-73
2022/07/16 00:17:42;;;;;;;12.30;8.70;;;;;;;11.77;100.00;99254.14;105216;1271;61390;-73
2022/07/16 00:20:08;;;;;;;10.40;7.50;;;;;;;11.72;100.00;99255.52;105226;1269;61323;-73
2022/07/16 00:22:34;;;;;;;10.70;7.70;;;;;;;11.63;100.00;99257.53;105407;1268;61377;-73
2022/07/16 00:25:01;;;;;;;9.20;8.10;;;;;;;11.56;100.00;99255.89;105165;1268;61330;-73
2022/07/16 00:27:27;;;;;;;9.30;7.40;;;;;;;11.52;100.00;99253.13;105268;1269;61254;-73
2022/07/16 00:29:53;;;;;;;10.40;7.50;;;;;;;11.48;100.00;99255.52;105250;1268;61319;-73
2022/07/16 00:32:18;;;;;;;9.90;7.90;;;;;;;11.45;100.00;99249.45;105222;1268;72599;-73
2022/07/16 00:34:44;;;;;;;12.50;7.80;;;;;;;11.46;100.00;99248.74;105171;1271;61471;-73
2022/07/16 00:37:10;;;;;;;9.80;7.90;;;;;;;11.46;100.00;99250.69;105181;1271;61390;-72
2022/07/16 00:39:36;;;;;;;10.60;7.90;;;;;;;11.46;100.00;99248.70;105216;1271;61325;-72
2022/07/16 00:42:02;;;;;;;13.00;7.70;;;;;;;11.47;100.00;99249.23;105184;1268;61291;-72
2022/07/16 00:44:27;;;;;;;10.20;7.00;;;;;;;11.46;100.00;99249.82;105154;1268;61260;-72
2022/07/16 00:46:53;;;;;;;8.40;7.00;;;;;;;11.45;100.00;99251.98;104985;1272;61370;-72
2022/07/16 00:49:19;;;;;;;9.30;7.10;;;;;;;11.44;100.00;99245.13;105210;1271;75433;-72
2022/07/16 00:51:49;;;;;;;8.80;7.10;;;;;;;11.43;100.00;99242.83;105189;1271;61369;-72
2022/07/16 00:54:16;;;;;;;9.40;7.30;;;;;;;11.42;100.00;99240.75;105322;1271;73713;-72
2022/07/16 00:56:42;;;;;;;10.00;7.10;;;;;;;11.43;100.00;99241.98;105245;1269;61383;-73
2022/07/16 00:59:08;;;;;;;13.60;7.30;;;;;;;11.46;100.00;99236.59;105171;1269;60023;-73
2022/07/16 01:01:34;;;;;;;11.60;7.10;;;;;;;11.51;100.00;99234.67;104918;1271;61658;-71
2022/07/16 01:04:04;;;;;;;8.90;6.10;;;;;;;11.56;100.00;99233.65;104918;1271;61375;-72
2022/07/16 01:06:31;;;;;;;8.20;6.90;;;;;;;11.60;100.00;99227.86;105188;1268;74281;-72
2022/07/16 01:08:58;;;;;;;8.10;6.40;;;;;;;11.63;100.00;99227.65;105273;1269;61233;-73
2022/07/16 01:11:26;;;;;;;10.10;6.90;;;;;;;11.65;100.00;99226.96;105193;1269;61374;-72
2022/07/16 01:13:51;;;;;;;9.10;6.00;;;;;;;11.68;100.00;99228.89;105214;1271;75273;-72
2022/07/16 01:16:19;;;;;;;10.00;6.80;;;;;;;11.69;100.00;99226.16;105194;1271;61968;-73
2022/07/16 01:18:46;;;;;;;8.80;7.20;;;;;;;11.72;100.00;99226.00;105183;1271;73541;-72
2022/07/16 01:21:13;;;;;;;9.20;6.70;;;;;;;11.73;100.00;99224.85;105192;1268;61396;-73
2022/07/16 01:23:40;;;;;;;9.30;6.50;;;;;;;11.73;100.00;99221.96;105302;1271;62047;-72
2022/07/16 01:26:06;;;;;;;9.20;6.40;;;;;;;11.73;100.00;99224.34;105198;1271;75306;-73
2022/07/16 01:28:32;;;;;;;7.60;6.80;;;;;;;11.71;100.00;99220.86;105206;1271;61341;-73
2022/07/16 01:30:58;;;;;;;9.90;7.20;;;;;;;11.67;100.00;99220.95;105195;1271;61292;-74
2022/07/16 01:33:27;;;;;;;11.10;7.80;;;;;;;11.64;100.00;99219.94;105123;1271;61297;-72
2022/07/16 01:35:56;;;;;;;8.20;6.70;;;;;;;11.60;100.00;99221.09;105298;1271;62207;-72
2022/07/16 01:38:23;;;;;;;11.60;7.60;;;;;;;11.56;100.00;99216.89;105298;1271;75771;-72
2022/07/16 01:40:49;;;;;;;11.00;7.10;;;;;;;11.52;100.00;99218.58;105264;1271;69490;-72
2022/07/16 01:43:17;;;;;;;11.40;7.90;;;;;;;11.49;100.00;99216.33;105179;1271;61359;-72
2022/07/16 01:45:43;;;;;;;10.40;6.60;;;;;;;11.44;100.00;99217.86;105244;1271;61338;-72
2022/07/16 01:48:10;;;;;;;10.80;6.70;;;;;;;11.39;100.00;99216.39;105228;1271;61396;-73
2022/07/16 01:50:36;;;;;;;9.00;6.70;;;;;;;11.33;100.00;99210.96;104957;1271;75518;-73
2022/07/16 01:53:03;;;;;;;8.20;6.80;;;;;;;11.28;100.00;99210.95;105239;1271;61806;-72
2022/07/16 01:55:29;;;;;;;10.20;6.90;;;;;;;11.25;100.00;99210.83;105211;1271;61386;-72
2022/07/16 01:57:55;;;;;;;9.50;7.00;;;;;;;11.17;100.00;99207.94;104927;1272;61299;-72
2022/07/16 02:04:16;;;;;;;9.70;7.00;;;;;;;11.04;100.00;99206.67;105204;1271;74319;-72
2022/07/16 02:06:42;;;;;;;8.10;6.70;;;;;;;10.96;100.00;99210.54;104880;1271;61354;-72
2022/07/16 02:09:09;;;;;;;9.80;7.20;;;;;;;10.90;100.00;99209.71;104904;1271;61346;-72
2022/07/16 02:11:35;;;;;;;7.70;6.60;;;;;;;10.84;100.00;99210.45;105167;1271;61361;-72
2022/07/16 02:14:01;;;;;;;9.90;7.60;;;;;;;10.78;100.00;99208.91;105186;1271;62087;-73
2022/07/16 02:16:27;;;;;;;9.00;7.40;;;;;;;10.70;100.00;99210.59;105213;1271;61376;-73
2022/07/16 02:18:53;;;;;;;9.40;6.70;;;;;;;10.64;100.00;99207.30;105224;1271;61381;-72
2022/07/16 02:21:19;;;;;;;8.10;6.40;;;;;;;10.59;100.00;99208.30;105172;1271;61341;-72
2022/07/16 02:23:45;;;;;;;8.40;6.50;;;;;;;10.57;100.00;99205.24;105223;1271;61558;-71
2022/07/16 02:26:11;;;;;;;6.80;6.10;;;;;;;10.54;100.00;99199.56;105219;1271;61284;-72
2022/07/16 02:28:37;;;;;;;8.30;6.50;;;;;;;10.50;100.00;99192.89;105228;1270;70276;-72
2022/07/16 02:31:04;;;;;;;9.40;6.20;;;;;;;10.45;100.00;99194.96;105193;1271;61291;-72
2022/07/16 02:33:30;;;;;;;7.80;6.20;;;;;;;10.43;100.00;99193.33;105197;1271;61397;-72
2022/07/16 02:35:56;;;;;;;6.60;6.00;;;;;;;10.43;100.00;99195.98;105203;1271;61361;-72
2022/07/16 02:38:22;;;;;;;8.30;6.60;;;;;;;10.43;100.00;99193.19;105038;1271;61368;-72
2022/07/16 02:40:48;;;;;;;7.20;6.10;;;;;;;10.40;100.00;99196.92;105193;1271;61297;-72
2022/07/16 02:43:15;;;;;;;11.10;6.60;;;;;;;10.38;100.00;99196.33;105123;1271;61379;-72
2022/07/16 02:45:42;;;;;;;7.10;6.40;;;;;;;10.37;100.00;99199.55;105213;1271;61268;-72
2022/07/16 02:48:10;;;;;;;7.00;6.30;;;;;;;10.39;100.00;99204.95;105264;1271;61355;-71
2022/07/16 02:50:37;;;;;;;8.90;7.00;;;;;;;10.39;100.00;99204.23;105291;1271;61369;-71
2022/07/16 02:53:03;;;;;;;11.20;7.40;;;;;;;10.40;100.00;99204.34;104979;1271;68235;-72
2022/07/16 02:55:29;;;;;;;11.40;7.00;;;;;;;10.42;100.00;99202.81;105169;1271;61480;-72
2022/07/16 02:57:56;;;;;;;8.80;7.70;;;;;;;10.42;100.00;99203.15;104939;1274;61808;-72
2022/07/16 03:00:23;;;;;;;8.20;6.60;;;;;;;10.43;100.00;99204.86;105185;1271;61220;-72
2022/07/16 03:02:49;;;;;;;10.20;6.90;;;;;;;10.43;100.00;99206.46;105248;1271;61370;-72
2022/07/16 03:05:16;;;;;;;11.50;8.00;;;;;;;10.42;100.00;99198.02;105218;1271;61368;-72
2022/07/16 03:07:42;;;;;;;12.80;7.70;;;;;;;10.42;100.00;99196.58;104931;1274;61648;-72
2022/07/16 03:10:10;;;;;;;9.10;6.70;;;;;;;10.46;100.00;99193.68;105223;1270;61333;-71
2022/07/16 03:12:37;;;;;;;8.40;7.30;;;;;;;10.53;100.00;99195.91;105080;1272;61276;-71
2022/07/16 03:15:04;;;;;;;10.70;7.00;;;;;;;10.57;100.00;99196.70;105186;1271;75248;-71
2022/07/16 03:17:31;;;;;;;11.50;7.80;;;;;;;10.61;100.00;99198.95;105240;1271;68448;-71
2022/07/16 03:19:57;;;;;;;9.90;7.00;;;;;;;10.64;100.00;99206.04;105195;1271;74376;-72
2022/07/16 03:22:24;;;;;;;9.00;6.90;;;;;;;10.67;100.00;99207.26;105209;1272;61443;-71
2022/07/16 03:24:50;;;;;;;14.50;7.70;;;;;;;10.69;100.00;99210.52;105190;1269;61261;-72
2022/07/16 03:27:15;;;;;;;9.20;7.10;;;;;;;10.76;100.00;99212.89;105187;1271;61335;-73
2022/07/16 03:29:41;;;;;;;9.30;6.40;;;;;;;11.25;100.00;99204.58;105197;1272;61374;-73
2022/07/16 03:32:07;;;;;;;9.70;6.40;;;;;;;12.03;100.00;99204.80;105224;1271;61422;-73
2022/07/16 03:34:35;;;;;;;9.40;5.90;;;;;;;12.85;100.00;99200.77;105146;1271;61460;-72
2022/07/16 03:37:01;;;;;;;7.90;5.50;;;;;;;13.58;100.00;99205.13;105296;1271;61322;-73
2022/07/16 03:39:27;;;;;;;7.70;5.10;;;;;;;14.25;100.00;99202.48;105209;1274;61525;-73
2022/07/16 03:41:53;;;;;;;6.50;4.80;;;;;;;14.85;100.00;99202.88;104983;1274;61606;-72
2022/07/16 03:44:19;;;;;;;7.90;5.30;;;;;;;15.41;100.00;99200.47;105226;1272;61361;-72
2022/07/16 03:46:45;;;;;;;8.00;4.70;;;;;;;16.04;100.00;99203.56;105222;1270;61493;-72
2022/07/16 03:49:11;;;;;;;6.80;5.20;;;;;;;16.69;100.00;99207.55;105145;1271;75187;-72
2022/07/16 03:51:37;;;;;;;7.80;5.10;;;;;;;17.33;100.00;99209.38;105219;1271;61319;-71
2022/07/16 03:54:04;;;;;;;7.10;5.50;;;;;;;17.91;99.99;99206.52;105169;1273;61342;-72
2022/07/16 03:56:31;;;;;;;5.30;4.80;;;;;;;18.43;97.94;99205.34;105193;1271;61371;-72
2022/07/16 03:58:57;;;;;;;7.30;5.20;;;;;;;18.88;94.45;99202.27;105022;1274;61446;-72
2022/07/16 04:01:23;;;;;;;7.40;4.90;;;;;;;19.24;91.62;99198.35;104957;1272;61420;-73
2022/07/16 04:03:49;;;;;;;5.30;4.30;;;;;;;19.61;88.82;99197.33;105237;1271;61305;-72
2022/07/16 04:06:15;;;;;;;8.20;5.00;;;;;;;19.96;85.68;99196.28;105163;1271;61239;-72
2022/07/16 04:08:41;;;;;;;5.50;4.80;;;;;;;20.25;82.89;99192.11;105219;1272;61230;-72
2022/07/16 04:11:07;;;;;;;6.80;4.80;;;;;;;20.55;80.91;99197.30;105224;1271;61256;-72
2022/07/16 04:13:37;;;;;;;5.70;5.10;;;;;;;20.90;78.89;99195.40;105217;1271;61370;-72
2022/07/16 04:16:03;;;;;;;;;;;;;;;21.12;76.63;99189.89;105220;1271;69987;-72
2022/07/16 04:18:29;;;;;;;8.70;5.40;;;;;;;21.41;75.07;99187.14;104934;1274;61564;-72
2022/07/16 04:20:55;;;;;;;8.10;5.20;;;;;;;21.74;73.23;99188.44;105204;1272;61373;-72
2022/07/16 04:23:21;;;;;;;8.10;5.70;;;;;;;22.05;71.40;99192.55;105147;1271;61258;-72
2022/07/16 04:25:47;;;;;;;11.10;6.90;;;;;;;22.27;69.82;99187.92;105243;1271;61800;-72
2022/07/16 04:28:13;;;;;;;12.20;8.50;;;;;;;22.35;68.52;99190.30;105195;1271;61375;-72
2022/07/16 04:30:39;;;;;;;7.70;7.00;;;;;;;22.41;67.00;99188.07;105175;1271;61354;-72
2022/07/16 04:33:05;;;;;;;8.70;6.30;;;;;;;22.46;66.22;99183.52;105200;1271;61399;-72
2022/07/16 04:35:31;;;;;;;10.20;5.60;;;;;;;22.65;65.19;99183.71;105230;1272;74919;-73
2022/07/16 04:37:57;;;;;;;6.50;5.90;;;;;;;22.89;64.05;99180.77;105206;1271;61380;-73
2022/07/16 04:40:23;;;;;;;8.00;5.60;;;;;;;22.87;63.04;99185.79;105183;1271;61380;-73
2022/07/16 04:42:49;;;;;;;6.70;6.00;;;;;;;22.91;62.29;99183.95;105164;1271;61294;-73
2022/07/16 04:45:14;;;;;;;6.70;5.00;;;;;;;23.13;61.64;99184.84;105182;1274;61358;-72
2022/07/16 04:47:40;;;;;;;7.60;4.70;;;;;;;23.26;60.39;99185.55;105339;1271;61329;-72
2022/07/16 04:50:08;;;;;;;6.10;5.40;;;;;;;23.28;60.04;99186.17;105301;1271;61323;-72
2022/07/16 04:52:34;;;;;;;8.00;4.80;;;;;;;23.38;58.96;99180.09;105226;1272;61306;-73
2022/07/16 04:55:00;;;;;;;6.30;4.60;;;;;;;23.41;57.87;99179.73;105151;1271;61328;-73
2022/07/16 04:57:27;;;;;;;6.80;5.00;;;;;;;23.48;57.36;99179.98;105213;1269;61268;-73
2022/07/16 04:59:54;;;;;;;9.30;4.30;;;;;;;23.63;57.00;99179.55;105190;1271;61341;-73
2022/07/16 05:05:05;;;;;;;8.80;4.30;;;;;;;24.07;55.69;99174.86;105206;1271;72332;-73
2022/07/16 05:07:31;;;;;;;7.40;4.30;;;;;;;24.25;55.08;99175.27;104899;1272;61511;-73
2022/07/16 05:09:57;;;;;;;5.30;3.90;;;;;;;24.37;54.17;99173.27;105130;1270;61310;-73
2022/07/16 05:12:23;;;;;;;6.70;4.30;;;;;;;24.52;53.92;99176.91;105216;1271;61377;-73
2022/07/16 05:14:49;;;;;;;7.50;4.50;;;;;;;24.63;53.33;99176.06;105185;1271;61274;-73
2022/07/16 05:17:15;;;;;;;6.40;4.10;;;;;;;24.75;52.67;99176.95;105186;1271;61265;-72
2022/07/16 05:19:41;;;;;;;7.20;4.00;;;;;;;24.87;52.50;99176.38;105176;1270;61997;-72
2022/07/16 05:22:07;;;;;;;6.40;4.60;;;;;;;24.94;51.75;99175.63;105163;1271;61295;-73
2022/07/16 05:24:34;;;;;;;4.80;4.10;;;;;;;24.99;51.02;99175.60;105188;1271;61339;-72
2022/07/16 05:27:00;;;;;;;4.90;3.70;;;;;;;25.00;50.39;99176.23;105152;1271;73357;-73
2022/07/16 05:29:26;;;;;;;5.40;4.20;;;;;;;24.94;50.26;99170.25;105142;1271;61154;-72
2022/07/16 05:31:52;;;;;;;7.20;4.00;;;;;;;25.09;49.84;99170.19;105175;1271;61378;-73
2022/07/16 05:34:18;;;;;;;7.60;3.50;;;;;;;25.23;49.43;99170.59;105162;1270;61373;-73
2022/07/16 05:36:44;;;;;;;5.40;3.90;;;;;;;25.43;48.87;99168.28;105179;1271;61400;-74
2022/07/16 05:39:10;;;;;;;5.20;4.00;;;;;;;25.59;48.22;99170.41;105187;1271;61313;-71
2022/07/16 05:41:36;;;;;;;6.20;3.90;;;;;;;25.71;48.35;99168.97;104903;1274;61344;-72
2022/07/16 05:44:02;;;;;;;6.90;3.60;;;;;;;25.96;48.13;99169.38;104950;1273;61349;-72
2022/07/16 05:46:28;;;;;;;4.50;3.50;;;;;;;26.23;47.08;99163.15;105181;1271;61438;-73
2022/07/16 05:48:55;;;;;;;5.00;3.80;;;;;;;25.92;45.80;99155.85;105199;1271;61400;-72
2022/07/16 05:51:20;;;;;;;6.60;3.30;;;;;;;25.38;46.82;99154.51;105226;1271;61377;-72
2022/07/16 05:53:46;;;;;;;4.90;3.60;;;;;;;25.15;47.15;99155.98;105165;1271;61276;-72
2022/07/16 05:56:12;;;;;;;4.20;3.70;;;;;;;24.78;47.30;99156.07;105200;1271;61314;-72
2022/07/16 05:58:38;;;;;;;6.30;3.80;;;;;;;24.85;46.23;99161.89;104906;1274;63009;-72
2022/07/16 06:01:04;;;;;;;6.50;3.80;;;;;;;24.96;45.79;99160.34;105193;1271;61346;-73
2022/07/16 06:03:30;;;;;;;4.60;3.80;;;;;;;25.14;45.83;99158.83;105210;1271;61418;-73
2022/07/16 06:05:56;;;;;;;5.00;3.50;;;;;;;25.57;45.35;99158.54;104929;1271;61384;-72
2022/07/16 06:08:22;;;;;;;5.60;3.80;;;;;;;25.37;45.79;99157.73;105265;1271;61285;-73
2022/07/16 06:10:49;;;;;;;4.60;3.70;;;;;;;25.43;45.92;99156.30;105165;1271;72223;-73
2022/07/16 06:13:15;;;;;;;6.50;3.80;;;;;;;25.69;45.56;99156.44;105209;1271;61281;-73
2022/07/16 06:15:41;;;;;;;6.50;3.60;;;;;;;25.51;45.88;99160.67;105177;1271;61341;-73
2022/07/16 06:18:07;;;;;;;4.00;3.30;;;;;;;25.42;45.73;99163.39;104913;1271;61157;-72
2022/07/16 06:20:33;;;;;;;5.30;3.30;;;;;;;25.17;45.20;99166.23;105210;1271;61360;-72
2022/07/16 06:22:59;;;;;;;5.00;3.40;;;;;;;25.03;45.93;99168.39;105200;1271;61329;-73
2022/07/16 06:25:26;;;;;;;5.50;3.00;;;;;;;24.76;46.09;99171.38;105192;1271;61316;-72
2022/07/16 06:27:53;;;;;;;10.00;3.10;;;;;;;24.36;46.16;99169.67;105213;1271;61269;-72
2022/07/16 06:30:19;;;;;;;6.00;3.40;;;;;;;24.13;46.31;99169.60;105191;1271;61278;-73
2022/07/16 06:32:45;;;;;;;4.30;2.90;;;;;;;24.15;46.73;99171.73;105221;1271;61282;-72
2022/07/16 06:35:12;;;;;;;5.60;2.90;;;;;;;24.03;46.92;99172.59;104894;1271;61492;-72
2022/07/16 06:37:39;;;;;;;5.90;3.10;;;;;;;24.10;47.32;99173.79;104975;1272;62088;-72
2022/07/16 06:40:06;;;;;;;6.90;3.40;;;;;;;24.14;46.95;99169.66;105205;1271;61167;-73
2022/07/16 06:42:32;;;;;;;6.40;3.20;;;;;;;23.95;45.76;99168.14;105199;1271;61284;-72
2022/07/16 06:44:59;;;;;;;6.60;3.20;;;;;;;23.77;46.04;99166.53;105207;1271;61371;-72
2022/07/16 06:47:26;;;;;;;6.60;3.20;;;;;;;23.87;45.49;99160.23;105185;1271;61262;-72
2022/07/16 06:49:53;;;;;;;8.30;3.00;;;;;;;23.99;45.04;99158.27;104912;1271;61326;-72
2022/07/16 06:52:19;;;;;;;4.70;2.60;;;;;;;23.95;44.71;99159.02;105253;1270;61194;-72
2022/07/16 06:54:46;;;;;;;4.80;3.00;;;;;;;23.90;44.55;99158.21;105131;1271;61349;-73
2022/07/16 06:57:12;;;;;;;5.40;2.50;;;;;;;23.53;44.74;99156.60;105026;1271;61355;-73
2022/07/16 06:59:38;;;;;;;4.50;2.60;;;;;;;23.18;44.44;99159.85;105152;1271;61269;-72
2022/07/16 07:02:04;;;;;;;4.70;2.50;;;;;;;22.78;44.92;99155.56;105185;1271;61300;-72
2022/07/16 07:04:30;;;;;;;5.70;2.80;;;;;;;22.94;45.79;99156.82;105000;1271;61339;-72
2022/07/16 07:06:56;;;;;;;4.90;3.00;;;;;;;23.30;45.74;99152.98;105176;1271;61300;-74
2022/07/16 07:09:22;;;;;;;6.70;2.60;;;;;;;23.50;45.59;99148.16;105149;1271;61368;-72
2022/07/16 07:11:49;;;;;;;3.70;2.80;;;;;;;23.55;45.55;99148.91;104981;1271;61433;-72
2022/07/16 07:14:15;;;;;;;5.00;2.70;;;;;;;23.66;45.74;99148.37;105180;1271;61245;-73
2022/07/16 07:16:41;;;;;;;5.30;2.80;;;;;;;23.87;45.91;99145.64;104911;1271;61313;-73
2022/07/16 07:19:07;;;;;;;4.00;2.80;;;;;;;24.08;45.43;99146.19;105195;1271;61345;-73
2022/07/16 07:21:34;;;;;;;4.40;2.00;;;;;;;24.24;45.99;99143.54;105168;1271;71593;-72
2022/07/16 07:24:00;;;;;;;3.60;2.30;;;;;;;24.51;45.50;99146.13;105302;1271;61243;-72
2022/07/16 07:26:26;;;;;;;5.30;3.10;;;;;;;24.56;44.45;99146.95;105168;1271;61387;-72
2022/07/16 07:28:53;;;;;;;6.40;3.10;;;;;;;24.66;45.24;99141.41;105192;1271;61862;-73
2022/07/16 07:31:19;;;;;;;5.20;2.60;;;;;;;24.74;45.19;99141.32;105167;1271;61337;-72
2022/07/16 07:33:44;;;;;;;5.10;2.50;;;;;;;24.57;45.26;99139.13;104894;1272;61887;-73
2022/07/16 07:36:11;;;;;;;2.50;1.80;;;;;;;24.41;45.17;99135.52;105185;1271;61338;-74
2022/07/16 07:38:38;;;;;;;5.80;2.20;;;;;;;24.26;45.04;99130.20;105201;1271;61248;-73
2022/07/16 07:41:04;;;;;;;5.30;2.00;;;;;;;24.09;44.72;99131.05;105213;1270;61388;-73
2022/07/16 07:43:30;;;;;;;4.20;2.20;;;;;;;23.87;44.68;99130.95;105154;1271;61280;-72
2022/07/16 07:45:57;;;;;;;4.90;2.30;;;;;;;23.70;44.64;99129.42;105179;1271;61818;-73
2022/07/16 07:48:23;;;;;;;3.90;2.60;;;;;;;23.75;45.02;99127.36;105184;1271;61292;-73
2022/07/16 07:50:49;;;;;;;4.80;2.20;;;;;;;23.70;44.21;99127.73;105204;1271;61236;-72
2022/07/16 07:53:15;;;;;;;4.30;2.40;;;;;;;23.54;44.82;99128.77;105148;1271;61255;-74
2022/07/16 07:55:41;;;;;;;6.00;2.20;;;;;;;23.39;44.37;99128.73;105195;1271;61389;-72
2022/07/16 07:58:08;;;;;;;6.00;2.40;;;;;;;23.38;44.31;99127.95;105206;1271;61265;-74
2022/07/16 08:00:34;;;;;;;6.20;2.10;;;;;;;23.41;44.07;99121.73;105189;1271;61967;-73
2022/07/16 08:03:00;;;;;;;2.90;2.00;;;;;;;23.36;43.39;99118.55;105210;1271;61292;-73
2022/07/16 08:05:26;;;;;;;3.30;1.70;;;;;;;23.45;43.62;99116.24;105177;1270;61316;-73
2022/07/16 08:07:52;;;;;;;2.40;1.50;;;;;;;23.57;42.99;99120.38;105184;1270;61334;-71
2022/07/16 08:10:18;;;;;;;4.10;1.40;;;;;;;23.54;42.73;99121.30;105220;1270;61323;-74
2022/07/16 08:12:45;;;;;;;6.40;1.50;;;;;;;23.56;41.90;99117.64;105198;1270;61451;-73
2022/07/16 08:15:12;;;;;;;4.90;1.60;;;;;;;23.58;42.41;99117.39;105172;1271;61390;-73
2022/07/16 08:17:39;;;;;;;4.00;1.30;;;;;;;23.58;42.17;99117.17;105214;1271;61412;-74
2022/07/16 08:20:09;;;;;;;2.30;1.30;;;;;;;23.49;42.00;99118.31;105184;1271;61332;-72
2022/07/16 08:22:36;;;;;;;2.90;1.50;;;;;;;23.31;41.78;99115.56;105229;1271;61355;-73
2022/07/16 08:27:49;;;;;;;4.50;1.40;;;;;;;23.04;42.33;99112.85;104962;1271;75268;-72
2022/07/16 08:30:14;;;;;;;3.50;1.40;;;;;;;22.88;42.00;99113.30;104925;1271;61370;-72
2022/07/16 08:32:41;;;;;;;6.00;1.70;;;;;;;22.71;41.88;99111.92;105143;1271;61332;-72
2022/07/16 08:35:08;;;;;;;5.20;1.70;;;;;;;22.72;42.17;99110.95;105196;1271;61269;-72
2022/07/16 08:37:40;;;;;;;2.80;1.30;;;;;;;22.86;42.46;99108.86;104930;1271;61550;-72
2022/07/16 08:40:10;;;;;;;6.20;1.50;;;;;;;22.84;42.55;99108.86;105215;1271;76411;-73
2022/07/16 08:42:37;;;;;;;4.80;1.90;;;;;;;22.69;42.53;99105.56;105332;1271;69558;-73
2022/07/16 08:45:06;;;;;;;3.50;1.70;;;;;;;22.49;42.24;99109.81;104912;1272;73240;-75
2022/07/16 08:47:34;;;;;;;3.60;1.90;;;;;;;22.52;42.56;99104.21;105189;1271;61302;-73
2022/07/16 08:50:02;;;;;;;2.50;1.70;;;;;;;22.76;43.83;99096.77;105191;1271;61360;-73
2022/07/16 08:52:29;;;;;;;4.00;1.40;;;;;;;23.08;43.44;99103.15;105236;1270;76366;-73
2022/07/16 08:54:56;;;;;;;4.20;1.90;;;;;;;23.27;43.24;99092.53;105240;1271;70622;-72
2022/07/16 08:57:24;;;;;;;3.50;1.60;;;;;;;23.39;42.90;99092.23;105193;1271;73609;-72
2022/07/16 08:59:52;;;;;;;6.70;1.90;;;;;;;23.35;42.53;99087.27;105176;1271;62016;-73
2022/07/16 09:02:18;;;;;;;3.80;1.70;;;;;;;23.17;42.71;99096.90;105235;1271;61128;-74
2022/07/16 09:04:46;;;;;;;3.90;1.50;;;;;;;23.20;42.29;99088.10;104945;1271;75232;-73
2022/07/16 09:07:13;;;;;;;4.10;1.80;;;;;;;23.37;42.37;99090.34;105194;1271;68610;-73
2022/07/16 09:09:40;;;;;;;6.00;1.70;;;;;;;23.51;42.13;99091.02;105218;1270;74661;-72
2022/07/16 09:12:06;;;;;;;5.50;1.80;;;;;;;23.66;42.27;99089.26;105239;1270;61301;-72
2022/07/16 09:14:32;;;;;;;3.50;1.70;;;;;;;23.77;41.91;99087.16;105189;1271;61243;-73
2022/07/16 09:17:00;;;;;;;5.30;2.70;;;;;;;23.84;40.55;99085.09;105188;1271;61269;-72
2022/07/16 09:19:28;;;;;;;2.00;1.40;;;;;;;23.75;40.07;99087.92;104998;1271;69126;-73
2022/07/16 09:22:03;;;;;;;6.00;1.90;;;;;;;23.67;40.36;99086.17;105034;1271;73269;-72
2022/07/16 09:24:37;;;;;;;4.40;1.70;;;;;;;23.88;40.67;99089.17;105221;1271;61273;-72
2022/07/16 09:27:13;;;;;;;3.50;1.70;;;;;;;24.04;40.18;99080.84;105283;1271;61273;-73
2022/07/16 09:29:58;;;;;;;3.20;1.70;;;;;;;24.24;40.27;99082.36;105247;1271;75244;-74
2022/07/16 09:32:30;;;;;;;2.10;1.10;;;;;;;24.42;39.64;99075.98;105274;1270;70481;-74
2022/07/16 09:35:05;;;;;;;4.20;1.80;;;;;;;24.48;38.83;99080.23;105197;1270;73259;-73
2022/07/16 09:37:54;;;;;;;3.00;1.30;;;;;;;24.57;38.62;99078.67;105547;1271;61249;-73
2022/07/16 09:40:40;;;;;;;3.10;1.20;;;;;;;24.68;38.25;99084.09;105601;1271;61370;-72
2022/07/16 09:43:12;;;;;;;2.90;1.50;;;;;;;24.84;38.69;99078.41;105408;1271;76436;-72
2022/07/16 09:45:44;;;;;;;3.70;2.00;;;;;;;24.87;38.58;99078.81;104993;1271;263708;-72
2022/07/16 09:48:31;;;;;;;2.10;1.50;;;;;;;24.92;38.30;99075.02;105316;1271;73408;-72
2022/07/16 09:51:21;;;;;;;3.40;1.50;;;;;;;24.97;37.19;99078.52;105287;1271;61390;-75
2022/07/16 09:53:51;;;;;;;3.10;1.40;;;;;;;24.98;36.92;99076.84;104902;1271;62154;-72
2022/07/16 09:56:22;;;;;;;2.00;1.30;;;;;;;24.98;37.16;99076.25;105198;1271;75428;-74
2022/07/16 09:58:52;;;;;;;3.80;1.50;;;;;;;25.12;37.08;99071.03;105318;1271;70265;-72
2022/07/16 10:01:20;;;;;;;2.40;1.30;;;;;;;25.25;37.81;99067.25;105238;1270;74669;-73
2022/07/16 10:03:48;;;;;;;2.70;1.50;;;;;;;25.33;37.88;99062.53;105232;1271;61426;-73
2022/07/16 10:06:14;;;;;;;2.30;1.50;;;;;;;25.33;37.30;99062.40;105236;1271;61875;-72
2022/07/16 10:08:45;;;;;;;3.70;1.50;;;;;;;25.03;37.30;99061.25;105189;1271;75196;-72
2022/07/16 10:11:12;;;;;;;3.90;1.50;;;;;;;24.95;37.75;99058.13;105191;1269;69453;-72
2022/07/16 10:13:44;;;;;;;4.20;1.70;;;;;;;25.16;37.17;99051.54;105272;1271;73259;-74
2022/07/16 10:16:11;;;;;;;2.00;1.20;;;;;;;25.25;36.46;99053.64;105268;1271;61305;-72
2022/07/16 10:18:45;;;;;;;9.30;2.20;;;;;;;25.30;36.32;99052.02;105208;1271;61185;-72
2022/07/16 10:21:16;;;;;;;2.90;1.40;;;;;;;25.52;36.49;99050.17;105226;1271;76836;-72
2022/07/16 10:23:50;;;;;;;4.20;1.70;;;;;;;25.66;36.43;99046.58;105361;1271;69336;-72
2022/07/16 10:26:22;;;;;;;2.30;1.10;;;;;;;25.77;36.51;99047.05;105210;1271;74354;-72
2022/07/16 10:28:54;;;;;;;3.50;1.20;;;;;;;25.85;36.15;99048.67;104966;1271;63080;-72
2022/07/16 10:31:33;;;;;;;3.70;1.20;;;;;;;25.81;35.69;99048.34;105333;1271;61238;-73
2022/07/16 10:34:14;;;;;;;3.00;1.30;;;;;;;25.46;34.97;99049.79;105207;1271;75618;-72
2022/07/16 10:36:52;;;;;;;3.50;1.30;;;;;;;25.01;35.29;99046.30;105222;1271;69406;-73
2022/07/16 10:39:20;;;;;;;3.00;1.40;;;;;;;24.65;36.43;99053.34;105208;1271;72289;-73
2022/07/16 10:41:51;;;;;;;4.50;1.40;;;;;;;24.51;36.81;99054.34;104994;1271;61359;-73
2022/07/16 10:44:20;;;;;;;2.00;1.60;;;;;;;24.43;37.38;99047.41;105271;1271;61175;-72
2022/07/16 10:47:06;;;;;;;5.40;1.50;;;;;;;24.34;37.70;99047.92;105254;1270;75531;-73
2022/07/16 10:49:32;;;;;;;2.70;1.30;;;;;;;24.45;38.03;99042.70;105202;1271;69650;-73
2022/07/16 10:52:05;;;;;;;4.70;1.50;;;;;;;24.52;37.61;99045.13;105209;1271;61358;-72
2022/07/16 10:54:35;;;;;;;4.50;1.80;;;;;;;24.42;37.88;99044.38;105241;1271;61307;-73
2022/07/16 10:57:02;;;;;;;;;;;;;;;24.44;38.08;99043.79;105165;1271;61258;-73
2022/07/16 10:59:32;;;;;;;3.00;1.70;;;;;;;24.52;38.47;99042.73;105238;1271;75270;-73
2022/07/16 11:02:01;;;;;;;2.90;1.60;;;;;;;24.65;38.43;99038.30;105070;1271;70436;-73
2022/07/16 11:04:37;;;;;;;3.20;1.60;;;;;;;24.62;38.41;99035.73;105102;1271;73351;-73
2022/07/16 11:07:09;;;;;;;4.70;1.60;;;;;;;24.43;37.48;99033.30;105221;1271;61359;-73
2022/07/16 11:09:38;;;;;;;3.90;1.50;;;;;;;24.27;38.41;99029.56;105255;1271;61196;-73
2022/07/16 11:12:17;;;;;;;4.20;1.70;;;;;;;24.43;38.81;99029.70;105289;1271;75277;-72
2022/07/16 11:14:47;;;;;;;2.50;1.50;;;;;;;24.85;38.81;99030.90;105348;1271;69334;-73
2022/07/16 11:17:15;;;;;;;1.80;1.50;;;;;;;25.19;38.60;99021.34;104922;1271;72766;-73
2022/07/16 11:19:44;;;;;;;3.50;1.90;;;;;;;25.36;38.55;99019.15;105291;1270;61271;-73
2022/07/16 11:22:11;;;;;;;2.10;1.30;;;;;;;25.35;37.94;99021.95;105231;1271;62142;-73
2022/07/16 11:24:59;;;;;;;2.20;1.20;;;;;;;25.16;37.81;99021.27;105210;1270;76105;-72
2022/07/16 11:27:29;;;;;;;3.20;1.30;;;;;;;25.08;38.07;99021.90;105239;1271;68569;-73
2022/07/16 11:29:58;;;;;;;4.20;1.30;;;;;;;25.07;38.22;99016.40;105291;1271;74729;-73
2022/07/16 11:32:25;;;;;;;1.90;1.40;;;;;;;25.05;37.92;99019.43;105265;1271;61355;-74
2022/07/16 11:34:51;;;;;;;2.40;1.60;;;;;;;24.87;37.61;99020.64;105252;1271;62075;-73